Time;durP1;ratioP1;P1;durP2;ratioP2;P2;SDS_P1;SDS_P2;PMS_P1;PMS_P2;Temp;Humidity;BMP_temperature;BMP_pressure;BME280_temperature;BME280_humidity;BME280_pressure;Samples;Min_cycle;Max_cycle;Signal;HPM_P1;HPM_P2
2023/01/10 00:01:29;;;;;;;4.43;1.73;;;19.80;61.00;;;;;;5055443;28;20378;-60
2023/01/10 00:03:55;;;;;;;4.20;1.90;;;19.70;60.90;;;;;;5060945;28;20051;-60
2023/01/10 00:06:20;;;;;;;3.67;1.60;;;19.70;60.90;;;;;;5075025;28;20048;-60
2023/01/10 00:08:46;;;;;;;5.60;1.48;;;19.70;60.90;;;;;;5075612;28;20040;-60
2023/01/10 00:13:56;;;;;;;4.55;1.88;;;19.70;61.50;;;;;;5075780;28;20048;-60
2023/01/10 00:16:22;;;;;;;5.32;2.05;;;19.70;60.80;;;;;;5074912;28;20040;-60
2023/01/10 00:18:47;;;;;;;3.85;1.52;;;19.70;60.80;;;;;;5074412;28;20139;-60
2023/01/10 00:21:13;;;;;;;4.25;1.50;;;19.70;60.80;;;;;;5075324;28;20045;-60
2023/01/10 00:23:40;;;;;;;4.10;1.73;;;19.60;60.80;;;;;;5075467;28;20083;-60
2023/01/10 00:26:05;;;;;;;4.75;1.65;;;19.70;60.80;;;;;;5074672;28;20037;-60
2023/01/10 00:28:33;;;;;;;3.45;1.50;;;19.60;60.80;;;;;;5074743;28;20049;-60
2023/01/10 00:31:05;;;;;;;3.13;1.65;;;19.60;60.80;;;;;;5070060;28;20044;-60
2023/01/10 00:33:37;;;;;;;5.00;1.70;;;19.60;60.80;;;;;;5074433;28;20050;-60
2023/01/10 00:36:05;;;;;;;4.97;1.80;;;19.60;60.80;;;;;;5075241;28;20090;-60
2023/01/10 00:38:32;;;;;;;3.15;1.52;;;19.60;61.40;;;;;;5073160;28;20080;-60
2023/01/10 00:40:57;;;;;;;3.95;1.48;;;19.60;60.80;;;;;;5074357;28;20044;-60
2023/01/10 00:46:08;;;;;;;3.38;1.50;;;19.60;60.80;;;;;;5074493;28;20052;-60
2023/01/10 00:48:34;;;;;;;4.60;1.75;;;19.50;60.70;;;;;;5074729;28;20044;-60
2023/01/10 00:50:59;;;;;;;4.10;1.42;;;19.50;60.70;;;;;;5074966;28;20119;-61
2023/01/10 00:53:26;;;;;;;5.35;1.50;;;19.50;60.70;;;;;;5073517;28;20044;-60
2023/01/10 00:55:52;;;;;;;3.38;1.42;;;19.50;60.60;;;;;;5074658;28;20041;-60
2023/01/10 00:58:18;;;;;;;4.05;1.60;;;19.50;60.70;;;;;;5074587;28;20123;-60
2023/01/10 01:00:45;;;;;;;3.70;1.48;;;19.50;60.70;;;;;;5074063;28;20116;-60
2023/01/10 01:03:11;;;;;;;3.72;1.50;;;19.50;60.60;;;;;;5074251;28;20037;-60
2023/01/10 01:05:41;;;;;;;3.72;1.40;;;19.50;60.60;;;;;;5074069;28;20083;-60
2023/01/10 01:08:06;;;;;;;4.22;1.45;;;19.50;60.60;;;;;;5072767;28;20044;-60
2023/01/10 01:10:32;;;;;;;3.05;1.35;;;19.50;60.60;;;;;;5074280;28;20392;-60
2023/01/10 01:12:59;;;;;;;3.75;1.30;;;19.40;60.60;;;;;;5074347;28;20037;-60
2023/01/10 01:15:25;;;;;;;3.95;1.30;;;19.40;60.50;;;;;;5073654;28;20060;-60
2023/01/10 01:17:51;;;;;;;4.03;1.63;;;19.40;60.60;;;;;;5074514;28;20029;-60
2023/01/10 01:20:17;;;;;;;4.75;1.40;;;19.40;60.50;;;;;;5055893;28;20412;-60
2023/01/10 01:22:42;;;;;;;3.33;1.38;;;19.40;60.50;;;;;;5052024;28;20080;-60
2023/01/10 01:25:08;;;;;;;4.18;1.30;;;19.40;60.50;;;;;;5051802;28;20067;-59
2023/01/10 01:27:33;;;;;;;4.82;1.67;;;19.40;60.50;;;;;;5054384;28;20033;-60
2023/01/10 01:30:00;;;;;;;4.10;1.48;;;19.40;60.50;;;;;;5052368;28;20102;-60
2023/01/10 01:32:25;;;;;;;3.42;1.42;;;19.40;60.50;;;;;;5052309;28;20120;-59
2023/01/10 01:34:51;;;;;;;4.82;1.45;;;19.30;60.40;;;;;;5054099;28;20127;-59
2023/01/10 01:37:18;;;;;;;3.58;1.27;;;19.30;60.40;;;;;;5052957;28;20041;-60
2023/01/10 01:39:45;;;;;;;4.88;1.30;;;19.30;60.30;;;;;;5053728;28;20052;-59
2023/01/10 01:42:20;;;;;;;3.78;1.20;;;19.30;60.30;;;;;;5053881;28;20045;-60
2023/01/10 01:45:02;;;;;;;6.10;1.38;;;19.30;60.30;;;;;;5052645;28;20041;-60
2023/01/10 01:47:27;;;;;;;3.80;1.65;;;19.30;60.30;;;;;;5052017;28;20502;-60
2023/01/10 01:49:53;;;;;;;3.25;1.05;;;19.30;60.30;;;;;;5052659;28;20036;-60
2023/01/10 01:52:23;;;;;;;3.17;1.30;;;19.30;60.30;;;;;;5052263;28;20484;-60
2023/01/10 01:54:48;;;;;;;3.85;1.20;;;19.30;60.30;;;;;;5036513;28;20045;-60
2023/01/10 01:57:16;;;;;;;3.78;1.33;;;19.30;60.30;;;;;;5052815;28;20044;-59
2023/01/10 01:59:46;;;;;;;4.80;1.35;;;19.30;60.30;;;;;;5052542;28;20126;-60
2023/01/10 02:02:13;;;;;;;2.65;1.10;;;19.30;60.30;;;;;;5052239;28;20476;-60
2023/01/10 02:05:04;;;;;;;5.05;1.05;;;19.30;60.30;;;;;;5051426;28;20497;-60
2023/01/10 02:07:32;;;;;;;3.78;1.30;;;19.30;60.20;;;;;;5046643;28;20570;-60
2023/01/10 02:10:07;;;;;;;5.75;1.55;;;19.20;60.20;;;;;;5053462;28;20055;-60
2023/01/10 02:12:32;;;;;;;4.03;1.60;;;19.20;60.20;;;;;;5050957;28;20128;-60
2023/01/10 02:14:58;;;;;;;4.05;1.08;;;19.20;60.20;;;;;;5052255;28;20127;-59
2023/01/10 02:17:23;;;;;;;3.22;1.10;;;19.20;60.20;;;;;;5034075;28;20080;-59
2023/01/10 02:19:54;;;;;;;4.13;1.33;;;19.20;60.20;;;;;;5051952;28;20067;-60
2023/01/10 02:22:50;;;;;;;4.82;1.27;;;19.20;60.20;;;;;;5051352;28;20084;-60
2023/01/10 02:25:19;;;;;;;3.95;1.27;;;19.20;60.20;;;;;;5050859;28;20499;-60
2023/01/10 02:28:17;;;;;;;3.28;1.20;;;19.20;60.20;;;;;;5052796;28;20044;-60
2023/01/10 02:31:09;;;;;;;4.05;1.20;;;19.20;60.20;;;;;;5048587;28;20461;-60
2023/01/10 02:33:53;;;;;;;4.57;1.30;;;19.20;60.20;;;;;;5050922;28;20083;-60
2023/01/10 02:36:30;;;;;;;3.75;1.10;;;19.10;60.10;;;;;;5052372;28;20047;-60
2023/01/10 02:39:25;;;;;;;4.57;1.40;;;19.10;60.20;;;;;;5050673;28;20049;-60
2023/01/10 02:42:01;;;;;;;3.97;1.45;;;19.10;60.20;;;;;;5051551;28;20045;-60
2023/01/10 02:44:41;;;;;;;5.45;1.40;;;19.10;60.20;;;;;;5050266;28;20056;-60
2023/01/10 02:47:07;;;;;;;4.43;1.23;;;19.10;60.10;;;;;;5050771;28;20404;-60
2023/01/10 02:49:46;;;;;;;4.10;1.20;;;19.10;60.20;;;;;;5052658;28;20048;-60
2023/01/10 02:52:14;;;;;;;3.40;0.90;;;19.10;60.20;;;;;;5051876;28;20087;-60
2023/01/10 02:54:39;;;;;;;3.25;1.17;;;19.10;60.20;;;;;;5050787;28;20121;-60
2023/01/10 02:57:18;;;;;;;4.90;1.45;;;19.10;60.20;;;;;;5052573;28;20049;-60
2023/01/10 02:59:51;;;;;;;4.70;1.17;;;19.00;60.10;;;;;;5051222;28;20124;-60
2023/01/10 03:02:42;;;;;;;4.82;1.55;;;19.00;60.10;;;;;;5051199;28;20048;-60
2023/01/10 03:05:29;;;;;;;4.18;1.10;;;19.00;60.10;;;;;;5051655;28;20044;-60
2023/01/10 03:08:12;;;;;;;3.45;1.00;;;19.00;60.10;;;;;;5050442;28;20127;-60
2023/01/10 03:10:51;;;;;;;4.28;0.95;;;19.00;60.10;;;;;;5051204;28;20110;-60
2023/01/10 03:13:22;;;;;;;4.15;1.10;;;19.00;60.10;;;;;;5050725;28;20041;-60
2023/01/10 03:15:48;;;;;;;4.65;1.30;;;19.00;60.10;;;;;;5050609;28;20060;-60
2023/01/10 03:18:17;;;;;;;3.50;0.70;;;19.00;60.10;;;;;;5051868;28;20049;-60
2023/01/10 03:20:43;;;;;;;3.47;1.40;;;19.00;60.10;;;;;;5050838;28;20081;-60
2023/01/10 03:23:09;;;;;;;3.42;0.93;;;19.00;60.10;;;;;;5033552;28;20124;-60
2023/01/10 03:25:35;;;;;;;3.60;1.00;;;19.00;60.00;;;;;;5034319;28;20182;-60
2023/01/10 03:28:34;;;;;;;4.00;1.10;;;19.00;60.00;;;;;;5049986;28;20401;-60
2023/01/10 03:31:06;;;;;;;4.00;0.90;;;19.00;60.00;;;;;;5055312;28;20055;-60
2023/01/10 03:33:32;;;;;;;4.00;1.00;;;19.00;60.00;;;;;;5054762;28;20045;-60
2023/01/10 03:36:07;;;;;;;4.32;1.40;;;19.00;60.00;;;;;;5054337;28;20120;-60
2023/01/10 03:38:40;;;;;;;4.00;1.13;;;19.00;60.00;;;;;;5054493;28;20045;-60
2023/01/10 03:41:33;;;;;;;2.67;1.00;;;19.00;60.00;;;;;;5054437;28;20115;-60
2023/01/10 03:47:26;;;;;;;2.80;0.90;;;19.00;59.90;;;;;;5056911;28;20484;-60
2023/01/10 03:50:22;;;;;;;3.30;1.00;;;19.00;59.90;;;;;;5055470;28;20045;-60
2023/01/10 03:52:48;;;;;;;2.88;0.95;;;19.00;59.90;;;;;;5029993;28;20087;-60
2023/01/10 03:55:17;;;;;;;2.85;1.27;;;19.10;59.90;;;;;;5055445;28;20076;-59
2023/01/10 03:57:44;;;;;;;3.30;1.10;;;19.10;59.80;;;;;;5054070;28;20056;-59
2023/01/10 04:00:10;;;;;;;3.20;0.80;;;19.10;59.80;;;;;;5055757;28;20051;-60
2023/01/10 04:02:36;;;;;;;4.60;1.02;;;19.10;59.80;;;;;;5055857;28;20041;-59
2023/01/10 04:05:01;;;;;;;2.78;0.80;;;19.10;59.80;;;;;;5054844;28;20056;-60
2023/01/10 04:07:27;;;;;;;3.78;0.80;;;19.10;59.70;;;;;;5055577;28;20036;-60
2023/01/10 04:09:53;;;;;;;4.25;1.23;;;19.10;59.70;;;;;;5054477;28;20255;-60
2023/01/10 04:12:18;;;;;;;3.25;0.95;;;19.10;59.70;;;;;;5054513;28;20087;-60
2023/01/10 04:14:47;;;;;;;4.75;1.13;;;19.10;59.70;;;;;;5055533;28;20053;-60
2023/01/10 04:17:13;;;;;;;2.45;0.80;;;19.10;59.70;;;;;;5054695;28;20037;-60
2023/01/10 04:19:38;;;;;;;5.30;1.17;;;19.10;59.70;;;;;;5055294;28;20067;-60
2023/01/10 04:22:07;;;;;;;2.63;0.80;;;19.10;59.60;;;;;;5055523;28;20045;-60
2023/01/10 04:24:32;;;;;;;3.33;0.98;;;19.10;59.60;;;;;;5053004;28;20041;-60
2023/01/10 04:26:58;;;;;;;6.97;1.17;;;19.20;59.60;;;;;;5053916;28;20047;-60
2023/01/10 04:29:24;;;;;;;3.58;0.90;;;19.20;59.60;;;;;;5053261;28;20095;-60
2023/01/10 04:31:49;;;;;;;4.10;1.10;;;19.20;59.60;;;;;;5054633;28;20476;-60
2023/01/10 04:34:15;;;;;;;3.50;0.90;;;19.20;59.60;;;;;;5054253;28;20103;-60
2023/01/10 04:36:41;;;;;;;4.22;0.90;;;19.20;59.60;;;;;;5055052;28;20528;-60
2023/01/10 04:39:06;;;;;;;3.28;1.10;;;19.20;59.50;;;;;;5054420;28;20052;-60
2023/01/10 04:41:32;;;;;;;3.85;0.95;;;19.20;59.50;;;;;;5053401;28;20045;-60
2023/01/10 04:43:57;;;;;;;4.85;0.98;;;19.30;59.60;;;;;;5055357;28;20044;-60
2023/01/10 04:46:23;;;;;;;4.28;0.95;;;19.30;59.60;;;;;;5054041;28;20401;-60
2023/01/10 04:48:48;;;;;;;2.58;0.70;;;19.30;59.60;;;;;;5053451;28;20052;-60
2023/01/10 04:51:14;;;;;;;4.65;1.20;;;19.30;59.50;;;;;;5053436;28;20037;-60
2023/01/10 04:53:40;;;;;;;3.88;1.10;;;19.30;59.50;;;;;;5054118;28;20480;-59
2023/01/10 04:56:07;;;;;;;2.95;0.90;;;19.30;59.40;;;;;;5054724;28;20510;-59
2023/01/10 04:58:36;;;;;;;4.15;1.10;;;19.30;59.40;;;;;;5054541;28;20195;-60
2023/01/10 05:01:15;;;;;;;2.17;0.70;;;19.30;59.40;;;;;;5053856;28;20037;-60
2023/01/10 05:03:41;;;;;;;5.05;1.02;;;19.30;59.40;;;;;;5054289;28;20040;-60
2023/01/10 05:06:06;;;;;;;2.70;0.70;;;19.40;59.40;;;;;;5053997;28;20086;-60
2023/01/10 05:08:32;;;;;;;3.47;1.05;;;19.40;59.40;;;;;;5051363;28;20149;-60
2023/01/10 05:10:58;;;;;;;2.92;0.93;;;19.40;59.40;;;;;;5054300;28;20036;-60
2023/01/10 05:13:25;;;;;;;2.75;1.00;;;19.40;59.40;;;;;;5053808;28;20159;-60
2023/01/10 05:15:54;;;;;;;3.33;0.90;;;19.40;59.30;;;;;;5053123;28;20044;-60
2023/01/10 05:18:20;;;;;;;3.15;1.17;;;19.50;59.60;;;;;;5053870;28;20182;-60
2023/01/10 05:20:45;;;;;;;3.22;0.90;;;19.50;59.40;;;;;;5053762;28;20083;-60
2023/01/10 05:23:11;;;;;;;2.90;0.80;;;19.40;59.30;;;;;;5052655;28;20033;-60
2023/01/10 05:25:37;;;;;;;4.70;0.90;;;19.50;59.30;;;;;;5054258;28;20080;-60
2023/01/10 05:28:02;;;;;;;2.65;0.65;;;19.50;59.30;;;;;;5053360;28;20040;-60
2023/01/10 05:30:28;;;;;;;3.00;0.80;;;19.50;59.30;;;;;;5053815;28;20044;-60
2023/01/10 05:32:53;;;;;;;5.45;1.33;;;19.50;59.30;;;;;;5052740;28;20146;-60
2023/01/10 05:35:19;;;;;;;4.10;0.90;;;19.50;59.20;;;;;;5051381;28;20047;-60
2023/01/10 05:37:44;;;;;;;3.40;0.90;;;19.60;59.30;;;;;;5054315;28;20040;-60
2023/01/10 05:40:10;;;;;;;4.93;0.80;;;19.60;59.30;;;;;;5053578;28;20455;-60
2023/01/10 05:42:36;;;;;;;3.53;0.88;;;19.60;59.30;;;;;;5053205;28;20373;-60
2023/01/10 05:45:02;;;;;;;3.60;0.90;;;19.60;59.20;;;;;;5053983;28;20712;-61
2023/01/10 05:47:27;;;;;;;3.22;0.65;;;19.60;59.20;;;;;;5035788;28;20049;-60
2023/01/10 05:49:53;;;;;;;2.53;1.00;;;19.60;59.20;;;;;;5052959;28;20049;-60
2023/01/10 05:52:19;;;;;;;3.78;0.75;;;19.60;59.20;;;;;;5053261;28;20041;-60
2023/01/10 05:54:44;;;;;;;3.35;0.80;;;19.70;59.20;;;;;;5053770;28;20094;-60
2023/01/10 05:57:10;;;;;;;3.15;0.80;;;19.70;59.10;;;;;;5052643;28;20041;-60
2023/01/10 05:59:35;;;;;;;3.40;0.80;;;19.70;59.10;;;;;;5052605;28;20059;-60
2023/01/10 06:02:01;;;;;;;2.40;0.60;;;19.70;59.10;;;;;;5053452;28;20382;-60
2023/01/10 06:04:26;;;;;;;4.70;1.23;;;19.70;59.10;;;;;;5052125;28;20041;-61
2023/01/10 06:06:52;;;;;;;3.90;1.08;;;19.70;59.10;;;;;;5053477;28;20041;-60
2023/01/10 06:09:17;;;;;;;2.70;0.60;;;19.70;59.10;;;;;;5053333;28;20085;-60
2023/01/10 06:11:43;;;;;;;2.50;0.70;;;19.70;59.00;;;;;;5052279;28;20528;-60
2023/01/10 06:14:09;;;;;;;4.82;0.70;;;19.70;59.00;;;;;;5053010;28;20374;-60
2023/01/10 06:16:34;;;;;;;2.78;0.77;;;19.80;59.10;;;;;;5049721;28;20033;-60
2023/01/10 06:19:00;;;;;;;3.75;0.90;;;19.80;59.10;;;;;;5050879;28;20053;-60
2023/01/10 06:21:26;;;;;;;3.65;0.90;;;19.80;59.00;;;;;;5052950;28;20120;-60
2023/01/10 06:23:52;;;;;;;3.53;0.90;;;19.80;59.00;;;;;;5052550;28;20123;-60
2023/01/10 06:26:18;;;;;;;3.10;1.08;;;19.70;58.90;;;;;;5052646;28;20116;-60
2023/01/10 06:28:43;;;;;;;2.75;0.88;;;19.80;59.00;;;;;;5053063;28;20048;-60
2023/01/10 06:31:09;;;;;;;2.25;0.82;;;19.80;59.00;;;;;;5050525;28;20099;-60
2023/01/10 06:33:34;;;;;;;3.55;0.90;;;19.80;59.00;;;;;;5052286;28;20067;-60
2023/01/10 06:36:00;;;;;;;4.35;0.85;;;19.80;59.00;;;;;;5052821;28;20041;-60
2023/01/10 06:38:26;;;;;;;2.72;0.55;;;19.80;59.60;;;;;;5050214;28;20041;-60
2023/01/10 06:40:52;;;;;;;2.95;0.80;;;19.80;58.90;;;;;;5053001;28;20044;-60
2023/01/10 06:43:17;;;;;;;4.85;0.82;;;19.90;59.00;;;;;;5052622;28;20399;-60
2023/01/10 06:45:43;;;;;;;3.38;0.98;;;19.90;59.00;;;;;;5050991;28;20071;-60
2023/01/10 06:48:08;;;;;;;4.07;0.65;;;19.90;59.00;;;;;;5052649;28;20045;-60
2023/01/10 06:50:34;;;;;;;5.13;1.42;;;19.90;58.90;;;;;;5052745;28;20099;-60
2023/01/10 06:53:01;;;;;;;3.92;0.80;;;19.90;58.90;;;;;;5050411;28;20445;-60
2023/01/10 06:55:27;;;;;;;2.83;1.05;;;19.90;58.90;;;;;;5052663;28;20041;-60
2023/01/10 06:58:00;;;;;;;3.05;1.02;;;19.90;58.90;;;;;;5052320;28;20119;-60
2023/01/10 07:00:26;;;;;;;2.60;0.70;;;19.90;58.90;;;;;;5059364;28;20123;-60
2023/01/10 07:02:53;;;;;;;3.47;0.82;;;19.90;58.90;;;;;;5072749;28;20101;-61
2023/01/10 07:05:19;;;;;;;4.00;1.08;;;19.90;58.90;;;;;;5071530;28;20041;-59
2023/01/10 07:07:45;;;;;;;5.00;0.82;;;19.90;58.80;;;;;;5071900;28;20045;-59
2023/01/10 07:10:10;;;;;;;3.70;0.80;;;19.90;58.80;;;;;;5070953;28;20089;-60
2023/01/10 07:12:36;;;;;;;2.80;0.80;;;19.90;58.80;;;;;;5072201;28;20169;-59
2023/01/10 07:15:01;;;;;;;2.90;0.80;;;19.90;58.80;;;;;;5070165;28;20484;-59
2023/01/10 07:17:28;;;;;;;4.18;0.85;;;19.90;58.70;;;;;;5072107;28;20084;-60
2023/01/10 07:19:54;;;;;;;5.20;0.90;;;19.90;58.80;;;;;;5071957;28;20060;-59
2023/01/10 07:22:20;;;;;;;2.58;0.80;;;19.90;58.80;;;;;;5071005;28;20042;-59
2023/01/10 07:24:45;;;;;;;3.47;0.90;;;19.90;58.70;;;;;;5072503;28;20063;-59
2023/01/10 07:27:11;;;;;;;6.00;0.98;;;19.90;58.70;;;;;;5071129;28;20044;-60
2023/01/10 07:29:36;;;;;;;5.85;0.82;;;19.90;58.80;;;;;;5072170;28;20036;-60
2023/01/10 07:32:02;;;;;;;4.50;1.13;;;19.90;58.80;;;;;;5066682;28;20041;-59
2023/01/10 07:34:27;;;;;;;3.13;0.95;;;19.90;58.90;;;;;;5069556;28;20045;-59
2023/01/10 07:36:53;;;;;;;4.20;0.95;;;20.00;59.00;;;;;;5062924;28;20094;-59
2023/01/10 07:39:18;;;;;;;8.82;1.30;;;20.00;59.10;;;;;;5050825;28;20135;-60
2023/01/10 07:41:46;;;;;;;6.13;1.05;;;20.00;59.20;;;;;;5050851;28;20068;-60
2023/01/10 07:44:12;;;;;;;6.78;0.90;;;20.00;59.40;;;;;;5051663;28;20477;-60
2023/01/10 07:46:37;;;;;;;6.18;1.10;;;20.00;59.40;;;;;;5051709;28;20102;-60
2023/01/10 07:49:03;;;;;;;5.65;0.98;;;20.00;59.50;;;;;;5049992;28;20531;-60
2023/01/10 07:51:28;;;;;;;6.03;1.00;;;20.00;59.60;;;;;;5050925;28;20397;-60
2023/01/10 07:53:54;;;;;;;4.35;1.20;;;20.00;59.70;;;;;;5051483;28;20049;-60
2023/01/10 07:56:19;;;;;;;3.10;0.75;;;20.10;59.80;;;;;;5050395;28;20083;-60
2023/01/10 07:58:45;;;;;;;5.13;1.00;;;20.10;59.90;;;;;;5051403;28;20052;-59
2023/01/10 08:01:11;;;;;;;5.50;0.80;;;20.10;60.00;;;;;;5048784;28;20516;-60
2023/01/10 08:03:36;;;;;;;5.97;1.00;;;20.10;60.00;;;;;;5049808;28;20403;-60
2023/01/10 08:06:03;;;;;;;5.90;1.00;;;20.10;59.90;;;;;;5052008;28;20158;-60
2023/01/10 08:08:29;;;;;;;5.80;0.90;;;20.10;59.80;;;;;;5051578;28;20140;-60
2023/01/10 08:10:55;;;;;;;7.15;1.17;;;20.10;59.70;;;;;;5051048;28;20131;-60
2023/01/10 08:13:21;;;;;;;4.88;0.90;;;20.10;59.80;;;;;;5051491;28;20095;-59
2023/01/10 08:15:49;;;;;;;4.38;0.85;;;20.10;59.90;;;;;;5052452;28;20049;-59
2023/01/10 08:18:15;;;;;;;5.40;1.23;;;20.10;59.90;;;;;;5054151;28;20092;-60
2023/01/10 08:20:40;;;;;;;3.90;0.80;;;20.10;60.00;;;;;;5055152;28;20080;-60
2023/01/10 08:23:06;;;;;;;4.00;1.00;;;20.20;60.00;;;;;;5055280;28;20063;-60
2023/01/10 08:25:31;;;;;;;4.90;1.17;;;20.20;59.90;;;;;;5054597;28;20407;-60
2023/01/10 08:27:57;;;;;;;4.40;1.10;;;20.20;60.00;;;;;;5055315;28;20041;-60
2023/01/10 08:30:22;;;;;;;4.80;0.90;;;20.20;60.00;;;;;;5054291;28;20064;-60
2023/01/10 08:32:48;;;;;;;8.85;1.30;;;20.20;60.00;;;;;;5071722;28;20052;-61
2023/01/10 08:35:14;;;;;;;4.82;1.10;;;20.20;60.00;;;;;;5069442;28;20053;-63
2023/01/10 08:37:39;;;;;;;4.65;0.90;;;20.20;60.00;;;;;;5074153;28;20072;-61
2023/01/10 08:40:06;;;;;;;4.65;0.80;;;20.20;59.90;;;;;;5074862;28;20036;-60
2023/01/10 08:42:31;;;;;;;4.60;1.23;;;20.20;60.00;;;;;;5074684;28;20048;-60
2023/01/10 08:44:57;;;;;;;5.72;0.80;;;20.20;60.00;;;;;;5074205;28;20037;-61
2023/01/10 08:47:22;;;;;;;3.83;0.90;;;20.20;60.00;;;;;;5074499;28;20437;-61
2023/01/10 08:49:48;;;;;;;6.03;1.30;;;20.20;60.00;;;;;;5067694;28;20040;-61
2023/01/10 08:52:14;;;;;;;5.00;1.15;;;20.20;59.90;;;;;;5052867;28;20040;-62
2023/01/10 08:54:40;;;;;;;5.05;1.05;;;20.20;60.00;;;;;;5063287;28;20036;-63
2023/01/10 08:57:06;;;;;;;3.70;1.00;;;20.20;60.00;;;;;;5058170;28;20043;-63
2023/01/10 08:59:31;;;;;;;3.90;1.20;;;20.30;60.00;;;;;;5053580;28;20496;-61
2023/01/10 09:01:58;;;;;;;5.50;1.00;;;20.30;60.00;;;;;;5054070;28;20076;-61
2023/01/10 09:04:25;;;;;;;5.38;1.00;;;20.30;60.10;;;;;;5055118;28;20054;-62
2023/01/10 09:06:50;;;;;;;7.05;1.08;;;20.30;60.20;;;;;;5072426;28;20047;-63
2023/01/10 09:09:16;;;;;;;3.83;1.08;;;20.30;60.20;;;;;;5074476;28;20119;-62
2023/01/10 09:11:42;;;;;;;7.70;1.00;;;20.30;60.20;;;;;;5074443;28;20094;-61
2023/01/10 09:14:07;;;;;;;5.20;1.55;;;20.30;60.20;;;;;;5073708;28;20048;-63
2023/01/10 09:16:33;;;;;;;5.63;0.90;;;20.30;60.10;;;;;;5074014;28;20044;-63
2023/01/10 09:18:58;;;;;;;6.20;1.17;;;20.30;60.10;;;;;;5074114;28;20128;-63
2023/01/10 09:21:24;;;;;;;4.93;1.20;;;20.30;60.20;;;;;;5072978;28;20514;-60
2023/01/10 09:23:49;;;;;;;6.55;1.23;;;20.30;60.10;;;;;;5074303;28;20041;-60
2023/01/10 09:26:15;;;;;;;5.20;1.00;;;20.30;60.00;;;;;;5073848;28;20040;-59
2023/01/10 09:28:40;;;;;;;5.10;0.90;;;20.30;60.20;;;;;;5072902;28;20119;-60
2023/01/10 09:31:07;;;;;;;5.47;1.42;;;20.30;60.20;;;;;;5074048;28;20039;-59
2023/01/10 09:33:33;;;;;;;5.00;1.10;;;20.30;60.20;;;;;;5073640;28;20079;-59
2023/01/10 09:35:59;;;;;;;7.75;1.58;;;20.30;60.10;;;;;;5073605;28;20043;-60
2023/01/10 09:38:25;;;;;;;7.03;1.20;;;20.30;60.10;;;;;;5073548;28;20040;-59
2023/01/10 09:41:18;;;;;;;3.88;1.05;;;20.30;60.20;;;;;;5068360;28;20036;-59
2023/01/10 09:43:59;;;;;;;4.97;1.15;;;20.30;60.10;;;;;;5073787;28;20072;-59
2023/01/10 09:46:33;;;;;;;8.60;1.67;;;20.30;60.20;;;;;;5072496;28;20094;-60
2023/01/10 09:49:05;;;;;;;7.13;1.30;;;20.30;60.20;;;;;;5073109;28;20041;-61
2023/01/10 09:51:36;;;;;;;7.30;1.48;;;20.30;60.20;;;;;;5073207;28;20044;-62
2023/01/10 09:54:04;;;;;;;5.63;1.10;;;20.30;60.10;;;;;;5072594;28;20051;-62
2023/01/10 09:56:29;;;;;;;7.13;1.27;;;20.30;60.10;;;;;;5070493;28;20101;-63
2023/01/10 09:58:55;;;;;;;4.28;0.95;;;20.30;60.00;;;;;;5072748;28;20044;-62
2023/01/10 10:01:24;;;;;;;6.75;1.60;;;20.30;60.00;;;;;;5072577;28;20040;-61
2023/01/10 10:04:12;;;;;;;5.32;1.10;;;20.30;59.90;;;;;;5071750;28;20044;-62
2023/01/10 10:06:38;;;;;;;;;;;20.30;59.90;;;;;;5068228;28;20044;-61
2023/01/10 10:09:03;;;;;;;7.65;1.70;;;20.30;59.50;;;;;;5052997;28;20261;-60
2023/01/10 10:11:49;;;;;;;6.18;1.75;;;20.30;59.80;;;;;;5053392;28;20120;-61
2023/01/10 10:14:46;;;;;;;9.27;1.60;;;20.30;59.70;;;;;;5052330;28;20048;-60
2023/01/10 10:17:31;;;;;;;5.15;1.30;;;20.30;59.60;;;;;;5051542;28;20056;-60
2023/01/10 10:20:25;;;;;;;8.30;1.40;;;20.30;59.60;;;;;;5045489;28;20103;-59
2023/01/10 10:23:22;;;;;;;6.20;1.15;;;20.30;59.80;;;;;;5051345;28;20063;-60
2023/01/10 10:26:17;;;;;;;10.05;1.63;;;20.30;60.00;;;;;;5052543;28;20052;-59
2023/01/10 10:29:08;;;;;;;5.43;1.73;;;20.20;60.10;;;;;;5051582;28;20116;-59
2023/01/10 10:31:48;;;;;;;9.23;2.00;;;20.30;60.10;;;;;;5030046;28;20404;-60
2023/01/10 10:34:37;;;;;;;7.50;1.65;;;20.20;60.10;;;;;;5032621;28;20042;-59
2023/01/10 10:37:22;;;;;;;6.65;1.70;;;20.30;60.30;;;;;;5031035;28;20045;-60
2023/01/10 10:39:52;;;;;;;6.95;2.15;;;20.30;60.20;;;;;;5032014;28;20076;-59
2023/01/10 10:42:18;;;;;;;7.00;1.83;;;20.20;60.30;;;;;;5046580;28;20037;-60
2023/01/10 10:44:45;;;;;;;8.10;1.80;;;20.30;60.30;;;;;;5052074;28;20396;-60
2023/01/10 10:47:18;;;;;;;6.40;1.90;;;20.30;61.00;;;;;;5051899;28;20072;-61
2023/01/10 10:49:49;;;;;;;9.05;1.60;;;20.30;60.40;;;;;;5052098;28;20533;-60
2023/01/10 10:52:37;;;;;;;9.20;1.85;;;20.30;60.40;;;;;;5050366;28;20123;-60
2023/01/10 10:55:04;;;;;;;7.90;1.70;;;20.20;60.40;;;;;;5045833;28;20559;-60
2023/01/10 10:57:31;;;;;;;5.83;1.40;;;20.30;60.40;;;;;;5051019;28;20059;-60
2023/01/10 10:59:57;;;;;;;6.63;1.50;;;20.20;60.30;;;;;;5050664;28;20422;-60
2023/01/10 11:02:30;;;;;;;6.93;1.33;;;20.20;60.40;;;;;;5052269;28;20101;-60
2023/01/10 11:05:01;;;;;;;7.43;1.52;;;20.20;60.40;;;;;;5052418;28;20076;-60
2023/01/10 11:07:28;;;;;;;5.43;1.33;;;20.30;60.50;;;;;;5050672;28;20067;-60
2023/01/10 11:12:40;;;;;;;8.88;1.63;;;20.20;60.40;;;;;;5050763;28;20144;-60
2023/01/10 11:15:06;;;;;;;5.20;1.58;;;20.20;60.40;;;;;;5050928;28;20543;-60
2023/01/10 11:17:39;;;;;;;5.30;1.55;;;20.20;60.50;;;;;;5052024;28;20033;-60
2023/01/10 11:20:06;;;;;;;8.10;1.73;;;20.20;60.30;;;;;;5058298;28;20109;-60
2023/01/10 11:22:53;;;;;;;5.38;1.40;;;20.20;60.20;;;;;;5072204;28;20037;-59
2023/01/10 11:25:20;;;;;;;7.43;1.83;;;20.20;60.10;;;;;;5041545;28;20073;-60
2023/01/10 11:27:47;;;;;;;6.80;1.63;;;20.20;60.20;;;;;;5051350;28;20091;-60
2023/01/10 11:30:31;;;;;;;6.03;1.70;;;20.20;60.20;;;;;;5050763;28;20478;-60
2023/01/10 11:33:00;;;;;;;6.78;1.90;;;20.20;60.20;;;;;;5034213;28;20527;-60
2023/01/10 11:35:29;;;;;;;7.75;1.30;;;20.10;60.20;;;;;;5050992;28;20374;-60
2023/01/10 11:38:05;;;;;;;4.43;1.30;;;20.10;60.20;;;;;;5051035;28;20420;-60
2023/01/10 11:40:36;;;;;;;3.65;1.33;;;20.10;60.10;;;;;;5051052;28;20048;-60
2023/01/10 11:43:34;;;;;;;6.18;1.50;;;20.10;60.20;;;;;;5050745;28;20037;-60
2023/01/10 11:46:21;;;;;;;5.07;1.80;;;20.10;60.10;;;;;;5049842;28;20400;-60
2023/01/10 11:49:05;;;;;;;5.70;1.90;;;20.10;60.10;;;;;;5049992;28;20044;-61
2023/01/10 11:51:39;;;;;;;5.07;1.50;;;20.10;60.20;;;;;;5053673;28;20499;-60
2023/01/10 11:54:22;;;;;;;6.68;1.63;;;20.10;60.30;;;;;;5053781;28;20154;-60
2023/01/10 11:57:06;;;;;;;8.10;1.90;;;20.10;60.40;;;;;;5054934;28;20052;-61
2023/01/10 11:59:31;;;;;;;7.07;1.58;;;20.10;60.50;;;;;;5054568;28;20090;-61
2023/01/10 12:02:12;;;;;;;6.85;1.60;;;20.10;60.20;;;;;;5054420;28;20082;-60
2023/01/10 12:04:42;;;;;;;7.60;1.52;;;20.00;60.10;;;;;;5053888;28;20120;-60
2023/01/10 12:07:09;;;;;;;5.80;1.60;;;20.00;60.00;;;;;;5055870;28;20056;-60
2023/01/10 12:09:36;;;;;;;7.43;2.00;;;20.00;60.10;;;;;;5055106;28;20041;-60
2023/01/10 12:12:03;;;;;;;7.88;2.08;;;20.10;60.20;;;;;;5055777;28;20049;-58
2023/01/10 12:14:29;;;;;;;3.60;1.20;;;20.00;60.20;;;;;;5055171;28;20523;-60
2023/01/10 12:16:59;;;;;;;4.97;1.30;;;20.00;60.20;;;;;;5053400;28;20080;-60
2023/01/10 12:19:25;;;;;;;5.65;1.33;;;20.00;60.30;;;;;;5054824;28;20064;-60
2023/01/10 12:21:50;;;;;;;5.70;1.60;;;20.00;60.30;;;;;;5054467;28;20044;-60
2023/01/10 12:24:21;;;;;;;7.07;1.75;;;20.00;60.30;;;;;;5053298;28;20450;-59
2023/01/10 12:26:49;;;;;;;5.28;1.40;;;20.00;60.40;;;;;;5049044;28;20679;-59
2023/01/10 12:29:16;;;;;;;;;;;20.00;60.40;;;;;;5055394;28;20496;-60
2023/01/10 12:31:42;;;;;;;6.40;1.75;;;20.00;60.50;;;;;;5069669;28;20324;-59
2023/01/10 12:34:18;;;;;;;6.13;1.55;;;20.00;60.50;;;;;;5055278;28;20134;-59
2023/01/10 12:37:19;;;;;;;6.70;1.58;;;20.00;60.60;;;;;;5053518;28;20045;-59
2023/01/10 12:39:47;;;;;;;5.97;1.70;;;20.00;60.70;;;;;;5055234;28;20118;-59
2023/01/10 12:45:22;;;;;;;7.10;1.58;;;20.00;60.70;;;;;;5053283;28;20079;-59
2023/01/10 12:48:16;;;;;;;7.95;1.27;;;20.00;60.70;;;;;;5053945;28;20052;-58
2023/01/10 12:50:44;;;;;;;6.15;1.60;;;20.10;60.80;;;;;;5053927;28;20497;-59
2023/01/10 12:53:39;;;;;;;8.02;1.60;;;20.00;60.70;;;;;;5053216;28;20055;-59
2023/01/10 12:56:06;;;;;;;9.25;2.00;;;20.00;60.50;;;;;;5053179;28;20048;-59
2023/01/10 12:58:41;;;;;;;6.90;1.35;;;20.10;60.60;;;;;;5052002;28;20044;-59
2023/01/10 13:01:07;;;;;;;7.88;2.15;;;20.10;60.50;;;;;;5053250;28;20048;-59
2023/01/10 13:03:33;;;;;;;4.70;1.27;;;20.10;60.40;;;;;;5052022;28;20152;-59
2023/01/10 13:05:58;;;;;;;9.98;1.80;;;20.10;60.30;;;;;;5069720;28;20119;-59
2023/01/10 13:08:32;;;;;;;8.52;1.40;;;20.10;60.20;;;;;;5070514;28;20044;-61
2023/01/10 13:10:58;;;;;;;5.10;1.20;;;20.10;60.10;;;;;;5034703;28;20506;-60
2023/01/10 13:13:34;;;;;;;7.22;1.48;;;20.10;60.00;;;;;;5052543;28;20506;-60
2023/01/10 13:16:14;;;;;;;6.22;1.90;;;20.10;60.50;;;;;;5053561;28;20033;-60